Time;durP1;ratioP1;P1;durP2;ratioP2;P2;SDS_P1;SDS_P2;PMS_P1;PMS_P2;Temp;Humidity;BMP_temperature;BMP_pressure;BME280_temperature;BME280_humidity;BME280_pressure;Samples;Min_cycle;Max_cycle;Signal;HPM_P1;HPM_P2
2024/04/15 00:01:13;;;;;;;3.63;0.80;;;10.50;99.90;;;;;;13300554;26;20005;-78
2024/04/15 00:07:15;;;;;;;5.05;1.10;;;10.70;99.90;;;;;;13285493;26;20040;-78
2024/04/15 00:13:18;;;;;;;3.63;1.20;;;10.70;99.90;;;;;;13271452;26;20076;-78
2024/04/15 00:19:20;;;;;;;4.22;1.17;;;10.70;99.90;;;;;;13283017;26;20012;-78
2024/04/15 00:25:22;;;;;;;4.78;1.20;;;10.60;99.90;;;;;;13268268;26;20020;-77
2024/04/15 00:31:24;;;;;;;3.83;1.10;;;10.50;99.90;;;;;;13240538;26;20005;-77
2024/04/15 00:37:26;;;;;;;4.35;0.90;;;10.40;99.90;;;;;;13288018;26;21365;-76
2024/04/15 00:43:28;;;;;;;4.88;1.10;;;9.70;99.90;;;;;;13290124;26;20012;-77
2024/04/15 00:49:32;;;;;;;5.75;1.30;;;9.70;99.90;;;;;;13350732;26;20016;-77
2024/04/15 00:55:37;;;;;;;5.57;1.20;;;9.60;99.90;;;;;;13360175;26;20489;-77
2024/04/15 01:01:40;;;;;;;5.50;0.88;;;9.60;99.90;;;;;;13362275;26;20448;-77
2024/04/15 01:07:42;;;;;;;4.05;1.15;;;9.50;99.90;;;;;;13352757;26;20778;-78
2024/04/15 01:13:44;;;;;;;4.95;1.00;;;9.70;99.90;;;;;;13373518;26;20079;-77
2024/04/15 01:19:46;;;;;;;5.40;1.10;;;9.80;99.90;;;;;;13356129;26;20433;-77
2024/04/15 01:25:48;;;;;;;5.50;1.20;;;9.80;99.90;;;;;;13355760;26;20016;-77
2024/04/15 01:31:51;;;;;;;2.60;1.00;;;9.80;99.90;;;;;;13348218;26;19997;-77
2024/04/15 01:37:53;;;;;;;2.67;0.90;;;9.90;99.90;;;;;;13358250;26;20015;-78
2024/04/15 01:43:55;;;;;;;5.93;1.45;;;9.90;99.90;;;;;;13350277;26;20527;-77
2024/04/15 01:49:57;;;;;;;5.95;1.48;;;9.80;99.90;;;;;;13360917;26;20023;-78
2024/04/15 01:55:59;;;;;;;3.58;1.00;;;9.80;99.90;;;;;;13325628;26;20000;-78
2024/04/15 02:02:01;;;;;;;4.25;1.23;;;9.80;99.90;;;;;;13362221;26;20378;-77
2024/04/15 02:08:03;;;;;;;9.02;1.70;;;9.60;99.90;;;;;;13372494;26;20076;-77
2024/04/15 02:14:05;;;;;;;9.55;1.40;;;9.70;99.90;;;;;;13384724;26;20008;-78
2024/04/15 02:20:08;;;;;;;3.97;2.17;;;9.60;99.90;;;;;;13361367;26;20015;-77
2024/04/15 02:26:10;;;;;;;5.75;1.30;;;9.60;99.90;;;;;;13360432;26;20016;-79
2024/04/15 02:32:12;;;;;;;5.65;1.33;;;9.50;99.90;;;;;;13366274;26;20000;-77
2024/04/15 02:38:14;;;;;;;5.72;1.65;;;9.10;99.90;;;;;;13343100;26;20019;-77
2024/04/15 02:44:16;;;;;;;4.90;1.30;;;8.90;99.90;;;;;;13364155;26;20000;-78
2024/04/15 02:50:18;;;;;;;6.60;1.40;;;9.10;99.90;;;;;;13357057;26;20007;-77
2024/04/15 02:56:20;;;;;;;3.03;1.45;;;9.00;99.90;;;;;;13352509;26;20004;-77
2024/04/15 03:02:22;;;;;;;5.85;1.60;;;8.70;99.90;;;;;;13358872;26;20004;-77
2024/04/15 03:08:24;;;;;;;5.57;1.65;;;9.00;99.90;;;;;;13369094;26;20004;-77
2024/04/15 03:14:26;;;;;;;7.20;1.50;;;9.20;99.90;;;;;;13368350;26;20012;-77
2024/04/15 03:20:29;;;;;;;6.72;1.73;;;9.40;99.90;;;;;;13367210;26;20004;-77
2024/04/15 03:26:31;;;;;;;5.13;1.48;;;9.30;99.90;;;;;;13388000;26;19999;-78
2024/04/15 03:32:33;;;;;;;6.07;1.88;;;9.10;99.90;;;;;;13356776;26;20019;-78
2024/04/15 03:38:36;;;;;;;4.97;1.80;;;9.00;99.90;;;;;;13360583;26;20015;-78
2024/04/15 03:44:38;;;;;;;5.03;2.20;;;9.00;99.90;;;;;;13369476;26;20027;-78
2024/04/15 03:50:43;;;;;;;5.93;2.10;;;9.00;99.90;;;;;;13367095;26;20008;-78
2024/04/15 03:56:45;;;;;;;8.38;3.38;;;9.10;99.90;;;;;;13346462;26;20003;-78
2024/04/15 04:02:47;;;;;;;8.55;3.50;;;9.00;99.90;;;;;;13358961;26;20011;-78
2024/04/15 04:08:53;;;;;;;7.90;3.28;;;8.90;99.90;;;;;;13360392;26;20403;-78
2024/04/15 04:14:55;;;;;;;11.38;3.70;;;8.90;99.90;;;;;;13374521;26;19999;-78
2024/04/15 04:20:57;;;;;;;8.13;3.92;;;8.90;99.90;;;;;;13424947;26;20000;-78
2024/04/15 04:26:59;;;;;;;9.75;4.40;;;8.80;99.90;;;;;;13428836;26;20007;-78
2024/04/15 04:33:03;;;;;;;9.95;4.53;;;8.90;99.90;;;;;;13408862;26;19996;-78
2024/04/15 04:39:06;;;;;;;13.30;5.20;;;8.90;99.90;;;;;;13414458;26;20006;-78
2024/04/15 04:45:08;;;;;;;9.65;5.53;;;8.90;99.90;;;;;;13413215;26;20023;-79
2024/04/15 04:51:10;;;;;;;13.20;5.75;;;8.80;99.90;;;;;;13369355;26;20004;-79
2024/04/15 04:57:12;;;;;;;9.10;6.35;;;8.80;99.90;;;;;;13371146;26;20008;-79
2024/04/15 05:03:15;;;;;;;9.45;5.75;;;8.80;99.90;;;;;;13348512;26;20000;-79
2024/04/15 05:09:17;;;;;;;9.82;6.40;;;8.90;99.90;;;;;;13352503;26;20015;-78
2024/04/15 05:15:19;;;;;;;12.00;6.40;;;8.90;99.90;;;;;;13345390;26;20015;-78
2024/04/15 05:21:21;;;;;;;11.57;6.53;;;8.70;99.90;;;;;;13390377;26;20003;-77
2024/04/15 05:27:23;;;;;;;13.48;6.85;;;8.70;99.90;;;;;;13360190;26;21182;-78
2024/04/15 05:33:26;;;;;;;12.90;7.85;;;8.80;99.90;;;;;;13356656;26;20016;-78
2024/04/15 05:39:28;;;;;;;11.73;8.25;;;9.00;99.90;;;;;;13369056;26;20027;-79
2024/04/15 05:45:30;;;;;;;14.98;8.25;;;9.10;99.90;;;;;;13380579;26;20004;-79
2024/04/15 05:51:32;;;;;;;13.50;8.52;;;9.10;99.90;;;;;;13366598;26;20019;-78
2024/04/15 05:57:34;;;;;;;12.32;8.05;;;9.50;99.90;;;;;;13388505;26;20360;-77
2024/04/15 06:03:36;;;;;;;11.00;6.97;;;9.50;99.90;;;;;;13363795;26;20321;-78
2024/04/15 06:09:39;;;;;;;11.52;6.57;;;9.30;99.90;;;;;;13363471;26;20004;-77
2024/04/15 06:15:41;;;;;;;9.77;5.85;;;9.20;99.90;;;;;;13354419;26;20000;-77
2024/04/15 06:21:44;;;;;;;10.70;5.90;;;9.20;99.90;;;;;;13379504;26;20008;-78
2024/04/15 06:27:46;;;;;;;11.48;5.32;;;9.30;99.90;;;;;;13360797;26;20000;-79
2024/04/15 06:33:51;;;;;;;11.77;5.65;;;9.20;99.90;;;;;;13375799;26;20015;-78
2024/04/15 06:39:53;;;;;;;11.20;6.25;;;9.40;99.90;;;;;;13370629;26;20000;-78
2024/04/15 06:45:56;;;;;;;15.85;6.60;;;9.30;99.90;;;;;;13355768;26;20479;-79
2024/04/15 06:51:58;;;;;;;13.35;6.30;;;9.60;99.90;;;;;;13380955;26;21586;-78
2024/04/15 06:58:00;;;;;;;9.88;6.63;;;9.60;99.90;;;;;;13368682;26;20019;-77
2024/04/15 07:04:03;;;;;;;13.93;8.80;;;9.70;99.90;;;;;;13360029;26;20000;-79
2024/04/15 07:10:06;;;;;;;17.40;9.52;;;9.80;99.90;;;;;;13363419;26;20097;-76
2024/04/15 07:16:09;;;;;;;22.17;13.27;;;9.80;99.90;;;;;;13365406;26;19996;-77
2024/04/15 07:22:11;;;;;;;20.42;13.65;;;9.90;99.90;;;;;;13362528;26;20506;-78
2024/04/15 07:28:14;;;;;;;18.08;12.75;;;10.20;99.90;;;;;;13326555;26;20446;-77
2024/04/15 07:34:16;;;;;;;19.20;12.20;;;10.40;99.90;;;;;;13338828;26;20004;-78
2024/04/15 07:40:18;;;;;;;19.95;13.02;;;10.90;99.90;;;;;;13344565;26;20000;-77
2024/04/15 07:46:20;;;;;;;19.50;12.40;;;10.80;99.90;;;;;;13351066;26;20008;-78
2024/04/15 07:52:23;;;;;;;19.40;13.13;;;10.60;99.90;;;;;;13349266;26;20000;-77
2024/04/15 07:58:26;;;;;;;27.15;14.20;;;10.60;99.90;;;;;;13351215;26;20028;-78
2024/04/15 08:04:28;;;;;;;18.33;12.80;;;11.30;99.90;;;;;;13366111;26;20008;-77
2024/04/15 08:10:30;;;;;;;18.73;11.20;;;11.60;99.90;;;;;;13357548;26;20008;-79
2024/04/15 08:16:32;;;;;;;17.58;10.93;;;11.40;99.90;;;;;;13356930;26;20000;-78
2024/04/15 08:22:34;;;;;;;18.98;11.35;;;11.10;99.90;;;;;;13347529;26;20008;-77
2024/04/15 08:28:36;;;;;;;24.80;11.98;;;11.00;99.90;;;;;;13334570;26;20456;-77
2024/04/15 08:34:38;;;;;;;16.08;11.30;;;10.70;99.90;;;;;;13333382;26;20460;-79
2024/04/15 08:40:57;;;;;;;16.60;11.23;;;10.90;99.90;;;;;;13352923;26;20019;-77
2024/04/15 08:47:12;;;;;;;17.77;10.77;;;10.80;99.90;;;;;;13356673;26;20019;-77
2024/04/15 08:53:15;;;;;;;19.52;9.77;;;10.70;99.90;;;;;;13357602;26;20004;-78
2024/04/15 08:59:19;;;;;;;17.10;9.18;;;10.50;99.90;;;;;;13349874;26;20577;-78
2024/04/15 09:05:21;;;;;;;15.13;9.40;;;10.60;99.90;;;;;;13352553;26;20015;-79
2024/04/15 09:11:23;;;;;;;14.90;9.27;;;11.40;99.90;;;;;;13362060;26;20462;-78
2024/04/15 09:17:26;;;;;;;18.27;9.10;;;11.50;99.90;;;;;;13360451;26;20008;-79
2024/04/15 09:23:29;;;;;;;14.50;9.20;;;11.70;99.90;;;;;;13352929;26;20023;-78
2024/04/15 09:29:31;;;;;;;13.43;7.72;;;11.70;99.90;;;;;;13341522;26;20453;-79
2024/04/15 09:35:33;;;;;;;14.73;8.30;;;11.80;99.90;;;;;;13360399;26;20012;-79
2024/04/15 09:41:38;;;;;;;13.77;7.85;;;11.50;99.90;;;;;;13369653;26;20562;-79
2024/04/15 09:47:41;;;;;;;11.70;7.90;;;11.20;99.90;;;;;;13346617;26;20003;-79
2024/04/15 09:53:48;;;;;;;13.03;7.23;;;11.00;99.90;;;;;;13371634;26;20065;-79
2024/04/15 09:59:56;;;;;;;9.38;6.47;;;11.00;99.90;;;;;;13358669;26;20000;-79
2024/04/15 10:06:03;;;;;;;15.30;8.10;;;11.20;99.90;;;;;;13341080;26;20015;-79
2024/04/15 10:12:07;;;;;;;10.70;4.88;;;11.30;99.90;;;;;;13353372;26;20012;-78
2024/04/15 10:18:14;;;;;;;9.50;5.18;;;11.40;99.90;;;;;;13345780;26;20044;-76
2024/04/15 10:24:17;;;;;;;9.38;4.40;;;11.60;99.90;;;;;;13374766;26;20348;-76
2024/04/15 10:30:19;;;;;;;11.52;3.20;;;11.80;99.90;;;;;;13340276;26;20012;-79
2024/04/15 10:36:30;;;;;;;9.55;4.22;;;11.90;99.90;;;;;;13354791;26;20004;-77
2024/04/15 10:42:33;;;;;;;10.25;3.95;;;11.80;99.90;;;;;;13357488;26;20000;-76
2024/04/15 10:48:35;;;;;;;5.75;2.92;;;12.10;99.90;;;;;;13342729;26;20008;-78
2024/04/15 10:54:37;;;;;;;8.63;3.28;;;12.30;99.90;;;;;;13335117;26;20046;-77
2024/04/15 11:00:43;;;;;;;5.38;2.50;;;12.50;99.90;;;;;;13347081;26;20094;-77
2024/04/15 11:06:48;;;;;;;6.20;2.22;;;12.50;99.90;;;;;;13351905;26;20096;-77
2024/04/15 11:12:52;;;;;;;6.22;2.50;;;12.80;99.90;;;;;;13363480;26;20348;-79
2024/04/15 11:19:04;;;;;;;;;;;13.00;99.90;;;;;;13358801;26;20009;-78
2024/04/15 11:25:09;;;;;;;5.95;1.83;;;12.80;99.90;;;;;;13362924;26;20232;-78
2024/04/15 11:31:12;;;;;;;5.82;1.65;;;12.80;99.90;;;;;;13348454;26;20023;-78
2024/04/15 11:37:14;;;;;;;5.68;2.03;;;12.90;99.90;;;;;;13352408;26;20005;-78
2024/04/15 11:43:17;;;;;;;6.15;2.05;;;13.20;99.90;;;;;;13352972;26;20012;-79
2024/04/15 11:49:19;;;;;;;6.20;2.00;;;13.10;99.90;;;;;;13354749;26;20086;-78
2024/04/15 11:55:21;;;;;;;6.00;1.70;;;12.80;99.90;;;;;;13358798;26;20023;-77
2024/04/15 12:01:23;;;;;;;8.02;2.00;;;12.90;99.90;;;;;;13364922;26;20352;-77
2024/04/15 12:07:25;;;;;;;10.00;2.00;;;13.10;99.90;;;;;;13366251;26;20011;-79
2024/04/15 12:13:28;;;;;;;7.35;1.63;;;12.70;99.90;;;;;;13358680;26;20012;-78
2024/04/15 12:19:30;;;;;;;2.83;1.13;;;12.70;99.90;;;;;;13347185;26;20004;-79
2024/04/15 12:25:32;;;;;;;6.28;1.30;;;12.90;99.90;;;;;;13346576;26;20015;-79
2024/04/15 12:31:34;;;;;;;4.45;1.20;;;13.20;99.90;;;;;;13347662;26;20004;-78
2024/04/15 12:37:37;;;;;;;8.00;1.30;;;13.20;99.90;;;;;;13350940;26;20009;-79
2024/04/15 12:43:41;;;;;;;4.60;1.27;;;13.00;99.90;;;;;;13370938;26;20008;-79
2024/04/15 12:49:43;;;;;;;3.10;1.40;;;13.20;99.90;;;;;;13350446;26;20125;-76
2024/04/15 12:55:46;;;;;;;3.83;1.20;;;13.00;99.90;;;;;;13376471;26;20019;-78
2024/04/15 13:01:48;;;;;;;5.35;1.65;;;12.90;99.90;;;;;;13362477;26;20000;-75
2024/04/15 13:08:09;;;;;;;6.43;1.50;;;12.70;99.90;;;;;;13342087;26;20004;-76
2024/04/15 13:14:11;;;;;;;8.77;1.90;;;12.80;99.90;;;;;;13371002;26;20004;-77
2024/04/15 13:20:13;;;;;;;3.75;1.70;;;13.60;99.90;;;;;;13353635;26;20009;-77
2024/04/15 13:26:15;;;;;;;5.22;1.70;;;13.60;99.90;;;;;;13361151;26;20019;-78
2024/04/15 13:32:17;;;;;;;4.63;1.65;;;13.00;99.90;;;;;;13336681;26;20039;-78
2024/04/15 13:38:21;;;;;;;6.32;1.40;;;12.90;99.90;;;;;;13379493;26;20039;-78
2024/04/15 13:44:23;;;;;;;6.05;1.38;;;12.80;99.90;;;;;;13339388;26;20020;-78
2024/04/15 13:50:26;;;;;;;9.68;1.55;;;12.70;99.90;;;;;;13366530;26;19996;-78
2024/04/15 13:56:28;;;;;;;4.45;1.20;;;12.60;99.90;;;;;;13337827;26;20008;-78
2024/04/15 14:02:30;;;;;;;3.70;1.15;;;12.50;99.90;;;;;;13377413;26;20008;-77
2024/04/15 14:08:32;;;;;;;5.75;1.25;;;12.30;99.90;;;;;;13357946;26;20019;-79
2024/04/15 14:14:34;;;;;;;3.47;1.15;;;12.90;99.90;;;;;;13358464;26;20019;-78
2024/04/15 14:20:37;;;;;;;4.40;1.20;;;12.80;99.90;;;;;;13356057;26;20050;-78
2024/04/15 14:26:39;;;;;;;4.55;1.00;;;12.50;99.90;;;;;;13353936;26;20469;-77
2024/04/15 14:32:42;;;;;;;6.88;1.20;;;12.60;99.90;;;;;;13343275;26;20018;-79
2024/04/15 14:38:45;;;;;;;4.07;1.52;;;12.20;99.90;;;;;;13377726;26;20081;-78
2024/04/15 14:44:47;;;;;;;8.18;1.10;;;11.60;99.90;;;;;;13394159;26;19999;-78
2024/04/15 14:50:50;;;;;;;3.10;0.95;;;11.50;99.90;;;;;;13397870;26;20004;-76
2024/04/15 14:56:52;;;;;;;3.25;0.90;;;11.50;99.90;;;;;;13404637;26;20011;-77
2024/04/15 15:02:54;;;;;;;5.15;1.00;;;11.30;99.90;;;;;;13342289;26;20000;-78
2024/04/15 15:08:56;;;;;;;2.10;0.88;;;11.10;99.90;;;;;;13348894;26;20012;-78
2024/04/15 15:14:59;;;;;;;2.38;0.93;;;11.20;99.90;;;;;;13346639;26;20015;-78
2024/04/15 15:21:01;;;;;;;1.98;0.90;;;11.30;99.90;;;;;;13370764;26;20363;-76
2024/04/15 15:27:21;;;;;;;1.77;0.70;;;11.00;99.90;;;;;;13332619;26;20020;-76
2024/04/15 15:33:23;;;;;;;4.25;0.93;;;10.90;99.90;;;;;;13408084;26;20004;-77
2024/04/15 15:39:25;;;;;;;2.40;1.00;;;11.00;99.90;;;;;;13341220;26;20081;-76
2024/04/15 15:45:28;;;;;;;3.58;0.95;;;11.00;99.90;;;;;;13367911;26;20015;-77
2024/04/15 15:51:34;;;;;;;3.35;0.90;;;10.90;99.90;;;;;;13365204;26;20011;-78
2024/04/15 15:57:38;;;;;;;6.30;1.08;;;10.90;99.90;;;;;;13369681;26;20576;-78
2024/04/15 16:03:40;;;;;;;3.88;1.10;;;10.80;99.90;;;;;;13352026;26;20012;-78
2024/04/15 16:09:42;;;;;;;4.45;1.05;;;10.80;99.90;;;;;;13367130;26;20003;-77
2024/04/15 16:15:45;;;;;;;2.65;0.90;;;10.50;99.90;;;;;;13336822;26;20020;-78
2024/04/15 16:21:47;;;;;;;1.20;0.45;;;9.90;99.90;;;;;;13366726;26;20391;-76
2024/04/15 16:27:49;;;;;;;1.13;0.40;;;8.20;99.90;;;;;;13337394;26;20004;-77
2024/04/15 16:33:51;;;;;;;2.75;0.43;;;6.90;99.90;;;;;;13349516;26;20004;-78
2024/04/15 16:39:53;;;;;;;1.85;0.30;;;6.70;99.90;;;;;;13306524;26;19996;-77
2024/04/15 16:45:55;;;;;;;0.40;0.30;;;6.80;99.90;;;;;;13330148;26;21319;-77
2024/04/15 16:52:04;;;;;;;0.80;0.40;;;6.90;99.90;;;;;;13348169;26;20823;-77
2024/04/15 16:58:06;;;;;;;1.17;0.50;;;6.80;99.90;;;;;;13538589;26;20583;-77
2024/04/15 17:04:09;;;;;;;0.30;0.30;;;6.70;99.90;;;;;;13579648;26;20006;-77
2024/04/15 17:10:11;;;;;;;0.68;0.50;;;6.60;99.90;;;;;;13596352;26;19998;-77
2024/04/15 17:16:14;;;;;;;0.85;0.50;;;6.60;99.90;;;;;;13622103;26;19998;-78
2024/04/15 17:22:16;;;;;;;1.45;0.40;;;6.60;99.90;;;;;;13618251;25;20013;-77
2024/04/15 17:28:18;;;;;;;4.47;0.60;;;6.40;99.90;;;;;;13589157;26;20021;-77
2024/04/15 17:34:20;;;;;;;2.53;0.70;;;6.40;99.90;;;;;;13625531;25;20006;-77
2024/04/15 17:40:22;;;;;;;3.20;0.90;;;6.30;99.90;;;;;;13630154;26;20341;-77
2024/04/15 17:46:25;;;;;;;0.90;0.60;;;6.30;99.90;;;;;;13562162;26;20042;-77
2024/04/15 17:52:27;;;;;;;1.75;0.90;;;6.10;99.90;;;;;;13600666;21;20011;-35
2024/04/15 17:58:29;;;;;;;2.63;1.17;;;6.30;99.90;;;;;;13301044;26;20512;-36
2024/04/15 18:04:31;;;;;;;3.22;1.27;;;6.30;99.90;;;;;;13306649;26;20011;-35
2024/04/15 18:10:34;;;;;;;3.17;0.80;;;5.90;99.90;;;;;;13324672;26;20004;-35
2024/04/15 18:16:36;;;;;;;3.88;1.00;;;6.10;99.90;;;;;;13315534;26;20646;-37
2024/04/15 18:22:38;;;;;;;3.78;1.02;;;6.10;99.90;;;;;;13325161;26;20074;-37
2024/04/15 18:28:40;;;;;;;4.90;1.65;;;6.00;99.90;;;;;;13322422;26;20008;-36
2024/04/15 18:34:42;;;;;;;2.25;1.40;;;5.90;99.90;;;;;;13315450;26;20050;-36
2024/04/15 18:40:44;;;;;;;3.10;1.80;;;6.10;99.90;;;;;;13339362;26;20498;-37
2024/04/15 18:46:47;;;;;;;4.18;2.20;;;6.10;99.90;;;;;;13288553;26;20000;-36
2024/04/15 18:52:49;;;;;;;4.45;2.30;;;6.30;99.90;;;;;;13341202;26;20009;-37
2024/04/15 18:58:51;;;;;;;3.70;2.10;;;6.20;99.90;;;;;;13324364;26;20000;-37
2024/04/15 19:04:53;;;;;;;5.50;1.90;;;6.20;99.90;;;;;;13339436;26;20103;-36
2024/04/15 19:10:55;;;;;;;5.15;2.05;;;5.90;99.90;;;;;;13281690;26;20000;-35
2024/04/15 19:16:57;;;;;;;2.75;1.25;;;6.10;99.90;;;;;;13334594;26;20340;-36
2024/04/15 19:22:59;;;;;;;4.88;1.50;;;6.10;99.90;;;;;;13293105;26;20004;-36
2024/04/15 19:29:02;;;;;;;4.30;1.70;;;6.00;99.90;;;;;;13313059;26;20167;-36
2024/04/15 19:35:04;;;;;;;4.82;1.67;;;6.10;99.90;;;;;;13341723;26;20016;-37
2024/04/15 19:41:07;;;;;;;4.22;2.00;;;5.90;99.90;;;;;;13334164;26;20015;-37
2024/04/15 19:47:09;;;;;;;3.10;1.98;;;6.00;99.90;;;;;;13300141;26;20012;-36
2024/04/15 19:53:11;;;;;;;2.47;1.75;;;5.60;99.90;;;;;;13335868;26;20000;-35
2024/04/15 19:59:13;;;;;;;1.90;1.17;;;5.80;99.90;;;;;;13304810;26;19996;-36
2024/04/15 20:05:16;;;;;;;1.63;0.68;;;5.90;99.90;;;;;;13328417;26;20023;-36
2024/04/15 20:11:18;;;;;;;1.30;0.40;;;5.80;99.90;;;;;;13319688;26;20572;-36
2024/04/15 20:17:22;;;;;;;2.13;0.73;;;5.70;99.90;;;;;;13333171;26;20008;-36
2024/04/15 20:23:24;;;;;;;3.27;0.70;;;5.30;99.90;;;;;;13297878;26;20011;-37
2024/04/15 20:29:28;;;;;;;2.72;1.00;;;5.10;99.90;;;;;;13302315;26;20291;-36
2024/04/15 20:35:30;;;;;;;2.35;1.08;;;5.10;99.90;;;;;;13322000;26;20011;-37
2024/04/15 20:41:32;;;;;;;2.58;1.02;;;5.30;99.90;;;;;;13328423;26;20012;-36
2024/04/15 20:47:34;;;;;;;2.42;1.10;;;5.40;99.90;;;;;;13300985;26;20001;-37
2024/04/15 20:53:36;;;;;;;6.13;1.40;;;5.80;99.90;;;;;;13325977;26;20022;-37
2024/04/15 20:59:38;;;;;;;4.28;1.55;;;5.80;99.90;;;;;;13352503;26;20019;-35
2024/04/15 21:05:40;;;;;;;7.03;1.40;;;5.80;99.90;;;;;;13313153;26;20004;-37
2024/04/15 21:11:42;;;;;;;3.50;1.63;;;5.70;99.90;;;;;;13339614;26;20011;-37
2024/04/15 21:17:44;;;;;;;5.45;1.85;;;5.70;99.90;;;;;;13320861;26;20360;-36
2024/04/15 21:23:46;;;;;;;3.78;2.03;;;5.90;99.90;;;;;;13314067;26;20340;-37
2024/04/15 21:29:48;;;;;;;9.90;2.50;;;5.90;99.90;;;;;;13319623;26;20012;-37
2024/04/15 21:35:50;;;;;;;6.13;2.83;;;5.80;99.90;;;;;;13332954;26;20339;-36
2024/04/15 21:41:52;;;;;;;5.55;2.60;;;5.80;99.90;;;;;;13311805;26;20019;-37
2024/04/15 21:47:54;;;;;;;6.13;3.08;;;5.80;99.90;;;;;;13292994;26;20045;-37
2024/04/15 21:53:56;;;;;;;9.15;2.70;;;5.80;99.90;;;;;;13322115;26;20054;-37
2024/04/15 21:59:58;;;;;;;7.93;2.75;;;5.80;99.90;;;;;;13314347;26;20496;-37
2024/04/15 22:06:00;;;;;;;8.05;2.80;;;5.80;99.90;;;;;;13321228;26;20074;-36
2024/04/15 22:12:02;;;;;;;5.80;2.83;;;5.70;99.90;;;;;;13323227;26;20004;-37
2024/04/15 22:18:06;;;;;;;6.05;2.88;;;5.80;99.90;;;;;;13309344;26;20000;-36
2024/04/15 22:24:08;;;;;;;4.15;2.78;;;5.60;99.90;;;;;;13300186;26;20004;-36
2024/04/15 22:30:11;;;;;;;5.35;2.55;;;5.70;99.90;;;;;;13342583;26;20077;-35
2024/04/15 22:36:12;;;;;;;3.33;1.83;;;5.70;99.90;;;;;;13320366;26;20013;-36
2024/04/15 22:42:14;;;;;;;3.35;1.98;;;5.80;99.90;;;;;;13321438;26;20060;-36
2024/04/15 22:48:20;;;;;;;2.70;1.88;;;5.80;99.90;;;;;;13306158;26;20044;-36
2024/04/15 22:54:22;;;;;;;2.83;1.10;;;5.90;99.90;;;;;;13303378;26;19996;-36
2024/04/15 23:00:25;;;;;;;2.85;1.20;;;5.90;99.90;;;;;;13340511;26;20016;-37
2024/04/15 23:06:27;;;;;;;3.28;1.73;;;5.70;99.90;;;;;;13321470;26;20000;-36
2024/04/15 23:12:29;;;;;;;2.17;0.80;;;5.70;99.90;;;;;;13324801;26;20007;-36
2024/04/15 23:18:32;;;;;;;3.35;1.23;;;5.80;99.90;;;;;;13341177;26;20019;-36
2024/04/15 23:24:35;;;;;;;2.10;0.93;;;5.70;99.90;;;;;;13329830;26;20019;-36
2024/04/15 23:30:37;;;;;;;2.60;1.27;;;5.70;99.90;;;;;;13344087;26;19996;-37
2024/04/15 23:36:45;;;;;;;4.38;1.48;;;5.60;99.90;;;;;;13334567;26;20081;-36
2024/04/15 23:42:47;;;;;;;5.47;1.90;;;5.70;99.90;;;;;;13336913;26;20015;-37
2024/04/15 23:48:49;;;;;;;5.78;2.28;;;5.70;99.90;;;;;;13294974;26;20401;-36
2024/04/15 23:54:51;;;;;;;3.08;1.80;;;5.70;99.90;;;;;;13263938;26;20029;-36
